Time;durP1;ratioP1;P1;durP2;ratioP2;P2;SDS_P1;SDS_P2;PMS_P1;PMS_P2;Temp;Humidity;BMP_temperature;BMP_pressure;BME280_temperature;BME280_humidity;BME280_pressure;Samples;Min_cycle;Max_cycle;Signal;HPM_P1;HPM_P2
2022/06/26 00:01:08;;;;;;;6.73;4.10;;;15.60;99.90;;;;;;5091316;28;20248;-65
2022/06/26 00:03:36;;;;;;;7.50;4.00;;;15.50;99.90;;;;;;5091748;28;20206;-66
2022/06/26 00:06:03;;;;;;;12.43;4.40;;;15.60;99.90;;;;;;5092470;28;20175;-65
2022/06/26 00:08:31;;;;;;;7.60;4.00;;;15.80;99.90;;;;;;5094672;28;20187;-66
2022/06/26 00:10:59;;;;;;;9.57;4.77;;;16.00;99.90;;;;;;5095352;28;20183;-65
2022/06/26 00:13:27;;;;;;;7.10;4.07;;;16.50;99.90;;;;;;5095749;28;20178;-66
2022/06/26 00:15:54;;;;;;;4.10;3.20;;;16.50;99.90;;;;;;5095894;28;20240;-66
2022/06/26 00:18:22;;;;;;;7.50;3.33;;;16.20;99.90;;;;;;5077610;28;20187;-66
2022/06/26 00:20:50;;;;;;;5.93;3.20;;;16.60;99.90;;;;;;5095655;28;20183;-64
2022/06/26 00:23:18;;;;;;;5.53;3.17;;;16.40;99.90;;;;;;5095832;28;20637;-64
2022/06/26 00:25:45;;;;;;;4.43;3.03;;;16.20;99.90;;;;;;5095575;28;20263;-65
2022/06/26 00:28:13;;;;;;;8.53;3.00;;;16.00;99.90;;;;;;5077182;28;20194;-66
2022/06/26 00:30:41;;;;;;;5.03;3.40;;;16.00;99.90;;;;;;5095016;28;20192;-66
2022/06/26 00:33:09;;;;;;;7.57;4.30;;;15.70;99.90;;;;;;5095624;28;20266;-67
2022/06/26 00:35:37;;;;;;;6.03;3.10;;;16.00;99.90;;;;;;5095357;28;20190;-67
2022/06/26 00:38:04;;;;;;;8.03;3.53;;;16.20;99.90;;;;;;5095067;28;20219;-65
2022/06/26 00:40:32;;;;;;;5.00;3.30;;;15.90;99.90;;;;;;5077189;28;20183;-67
2022/06/26 00:43:00;;;;;;;9.83;3.83;;;16.00;99.90;;;;;;5095415;28;20268;-67
2022/06/26 00:45:27;;;;;;;5.80;3.37;;;16.20;99.90;;;;;;5094994;28;20315;-66
2022/06/26 00:47:55;;;;;;;7.63;3.23;;;16.30;99.90;;;;;;5095376;28;20175;-66
2022/06/26 00:50:23;;;;;;;7.20;3.90;;;16.40;99.90;;;;;;5095214;28;20183;-67
2022/06/26 00:52:51;;;;;;;5.63;3.60;;;16.50;99.90;;;;;;5095150;28;20179;-66
2022/06/26 00:55:19;;;;;;;6.73;3.60;;;16.70;99.90;;;;;;5095911;28;20198;-64
2022/06/26 00:57:48;;;;;;;4.93;3.10;;;16.70;99.90;;;;;;5099970;28;20171;-67
2022/06/26 01:00:16;;;;;;;7.53;3.93;;;16.90;99.90;;;;;;5110652;28;20179;-66
2022/06/26 01:02:44;;;;;;;6.13;3.33;;;16.80;99.90;;;;;;5103438;28;20182;-66
2022/06/26 01:05:12;;;;;;;7.17;4.00;;;16.90;99.90;;;;;;5094942;28;20209;-67
2022/06/26 01:07:41;;;;;;;8.43;3.70;;;16.90;99.90;;;;;;5094988;28;20176;-67
2022/06/26 01:10:09;;;;;;;6.63;3.60;;;16.80;99.90;;;;;;5094707;28;20202;-66
2022/06/26 01:12:37;;;;;;;6.27;4.07;;;16.60;99.90;;;;;;5094827;28;20183;-67
2022/06/26 01:15:08;;;;;;;8.50;3.80;;;16.60;99.90;;;;;;5094877;28;20175;-67
2022/06/26 01:17:36;;;;;;;6.17;3.80;;;16.60;99.90;;;;;;5093361;28;20175;-67
2022/06/26 01:20:06;;;;;;;6.23;3.83;;;16.70;99.90;;;;;;5094278;28;20183;-67
2022/06/26 01:22:34;;;;;;;7.60;3.60;;;16.80;99.90;;;;;;5076517;28;20186;-66
2022/06/26 01:25:02;;;;;;;9.53;3.67;;;16.80;99.90;;;;;;5094490;28;20593;-67
2022/06/26 01:27:39;;;;;;;6.57;3.57;;;16.90;99.90;;;;;;5076263;28;20224;-67
2022/06/26 01:30:08;;;;;;;7.67;3.67;;;17.20;99.90;;;;;;5086366;28;20182;-67
2022/06/26 01:32:36;;;;;;;6.10;3.40;;;17.20;99.90;;;;;;5076445;28;20321;-65
2022/06/26 01:35:04;;;;;;;7.33;3.63;;;17.80;99.90;;;;;;5094233;28;20210;-66
2022/06/26 01:37:31;;;;;;;6.67;4.10;;;17.90;99.90;;;;;;5094121;28;20262;-66
2022/06/26 01:39:59;;;;;;;8.57;4.00;;;17.70;99.90;;;;;;5094164;28;20207;-66
2022/06/26 01:42:27;;;;;;;5.40;3.50;;;17.90;99.90;;;;;;5093832;28;20231;-67
2022/06/26 01:44:54;;;;;;;6.63;3.43;;;18.00;99.90;;;;;;5094161;28;20221;-67
2022/06/26 01:47:22;;;;;;;6.30;3.37;;;17.90;99.90;;;;;;5093834;28;20186;-67
2022/06/26 01:49:50;;;;;;;5.77;3.47;;;18.10;99.90;;;;;;5093199;28;20181;-67
2022/06/26 01:52:17;;;;;;;7.00;3.83;;;18.30;99.90;;;;;;5075255;28;20175;-67
2022/06/26 01:54:46;;;;;;;6.87;3.77;;;18.30;99.90;;;;;;5093360;28;20179;-65
2022/06/26 01:57:13;;;;;;;10.30;3.47;;;18.60;99.90;;;;;;5076046;28;20210;-67
2022/06/26 01:59:41;;;;;;;12.67;3.77;;;18.70;99.90;;;;;;5077141;28;20639;-67
2022/06/26 02:02:09;;;;;;;10.87;3.80;;;18.80;99.90;;;;;;5056538;28;20884;-67
2022/06/26 02:04:36;;;;;;;4.70;3.37;;;18.20;99.90;;;;;;5074462;28;20850;-66
2022/06/26 02:07:04;;;;;;;5.77;3.57;;;17.90;99.90;;;;;;5074587;28;20574;-66
2022/06/26 02:15:09;;;;;;;6.50;3.87;;;18.10;99.90;;;;;;5075134;28;20183;-67
2022/06/26 02:17:37;;;;;;;8.40;4.00;;;18.10;99.90;;;;;;5074381;28;20172;-68
2022/06/26 02:20:05;;;;;;;8.80;3.63;;;18.30;99.90;;;;;;5074480;28;20582;-66
2022/06/26 02:22:33;;;;;;;6.30;3.60;;;18.60;99.90;;;;;;5074497;28;20182;-67
2022/06/26 02:25:01;;;;;;;7.73;3.23;;;18.90;99.90;;;;;;5056512;28;20581;-66
2022/06/26 02:27:28;;;;;;;7.03;3.30;;;18.80;99.90;;;;;;5074137;28;20224;-65
2022/06/26 02:29:56;;;;;;;5.50;3.50;;;18.70;99.90;;;;;;5073863;28;20214;-66
2022/06/26 02:32:24;;;;;;;6.37;3.53;;;18.40;99.90;;;;;;5074075;28;20171;-67
2022/06/26 02:34:51;;;;;;;4.47;2.90;;;18.80;99.90;;;;;;5076812;28;20176;-66
2022/06/26 02:37:19;;;;;;;6.20;2.53;;;19.30;99.90;;;;;;5073906;28;20227;-65
2022/06/26 02:39:47;;;;;;;6.87;3.27;;;19.50;99.90;;;;;;5074054;28;20183;-67
2022/06/26 02:42:14;;;;;;;6.60;3.50;;;19.40;99.90;;;;;;5056006;28;20176;-66
2022/06/26 02:44:42;;;;;;;6.67;3.23;;;19.10;99.90;;;;;;5074573;28;20637;-66
2022/06/26 02:47:10;;;;;;;10.03;3.30;;;19.10;99.90;;;;;;5073978;28;20190;-66
2022/06/26 02:49:37;;;;;;;8.90;3.30;;;18.80;99.90;;;;;;5073879;28;20540;-67
2022/06/26 02:52:05;;;;;;;6.17;3.00;;;18.90;99.90;;;;;;5073938;28;20224;-65
2022/06/26 02:54:33;;;;;;;7.43;3.40;;;18.90;99.90;;;;;;5073825;28;20181;-66
2022/06/26 02:57:01;;;;;;;5.43;3.40;;;18.90;99.90;;;;;;5073733;28;20671;-67
2022/06/26 02:59:29;;;;;;;7.93;3.73;;;19.40;99.90;;;;;;5073754;28;20186;-68
2022/06/26 03:01:58;;;;;;;8.67;2.83;;;20.00;99.90;;;;;;5073861;28;20176;-66
2022/06/26 03:04:26;;;;;;;10.63;4.93;;;20.60;99.90;;;;;;5073566;28;20215;-67
2022/06/26 03:06:53;;;;;;;5.47;3.77;;;20.60;99.90;;;;;;5073836;28;20263;-67
2022/06/26 03:09:21;;;;;;;7.43;4.30;;;20.70;99.90;;;;;;5073645;28;20176;-68
2022/06/26 03:11:49;;;;;;;5.10;3.60;;;20.50;99.90;;;;;;5073563;28;20172;-67
2022/06/26 03:14:16;;;;;;;7.50;4.00;;;20.60;99.90;;;;;;5073578;28;20178;-68
2022/06/26 03:16:44;;;;;;;8.60;3.10;;;20.80;99.90;;;;;;5073323;28;20175;-66
2022/06/26 03:19:12;;;;;;;8.87;3.93;;;20.70;99.90;;;;;;5073428;28;20180;-66
2022/06/26 03:21:39;;;;;;;5.90;3.20;;;20.40;99.90;;;;;;5073461;28;20194;-67
2022/06/26 03:24:08;;;;;;;6.70;3.40;;;20.20;99.90;;;;;;5073061;28;20215;-66
2022/06/26 03:26:37;;;;;;;6.57;3.27;;;20.40;99.90;;;;;;5051861;28;20263;-67
2022/06/26 03:29:09;;;;;;;4.40;3.10;;;20.70;99.90;;;;;;5053259;28;20183;-67
2022/06/26 03:31:38;;;;;;;5.20;3.73;;;20.10;99.90;;;;;;5053371;28;20211;-66
2022/06/26 03:34:06;;;;;;;7.50;3.80;;;20.60;99.90;;;;;;5053223;28;20181;-67
2022/06/26 03:36:34;;;;;;;5.30;3.37;;;21.20;99.90;;;;;;5053267;28;20183;-65
2022/06/26 03:39:03;;;;;;;10.30;5.90;;;21.70;99.90;;;;;;5053075;28;20182;-65
2022/06/26 03:41:31;;;;;;;8.40;3.47;;;21.70;99.90;;;;;;5052464;28;20177;-66
2022/06/26 03:43:59;;;;;;;6.47;3.63;;;21.20;99.90;;;;;;5051848;28;20212;-67
2022/06/26 03:46:27;;;;;;;4.07;2.93;;;21.10;99.90;;;;;;5053211;28;20178;-66
2022/06/26 03:48:55;;;;;;;4.50;3.17;;;21.40;99.90;;;;;;5053028;28;20550;-65
2022/06/26 03:51:23;;;;;;;6.80;3.47;;;21.40;99.90;;;;;;5053045;28;20178;-66
2022/06/26 03:53:50;;;;;;;3.87;2.73;;;21.00;99.90;;;;;;5052858;28;20177;-65
2022/06/26 03:56:18;;;;;;;7.77;3.07;;;21.30;99.90;;;;;;5053144;28;20263;-65
2022/06/26 03:58:46;;;;;;;10.13;2.40;;;21.30;99.90;;;;;;5052765;28;20521;-67
2022/06/26 04:01:14;;;;;;;4.10;2.60;;;21.00;99.90;;;;;;5052964;28;20268;-66
2022/06/26 04:03:41;;;;;;;5.23;2.50;;;21.10;99.90;;;;;;5052953;28;20615;-65
2022/06/26 04:06:09;;;;;;;4.37;2.10;;;21.10;99.90;;;;;;5052907;28;20813;-66
2022/06/26 04:08:37;;;;;;;5.80;2.77;;;20.90;99.90;;;;;;5052833;28;20649;-67
2022/06/26 04:11:04;;;;;;;5.57;2.50;;;20.90;99.90;;;;;;5052965;28;20174;-67
2022/06/26 04:13:32;;;;;;;3.17;2.40;;;21.70;99.90;;;;;;5052822;28;20198;-67
2022/06/26 04:16:00;;;;;;;3.03;2.03;;;22.60;99.90;;;;;;5052770;28;20546;-67
2022/06/26 04:18:27;;;;;;;7.67;2.37;;;23.00;99.90;;;;;;5052894;28;20178;-67
2022/06/26 04:20:55;;;;;;;4.17;1.70;;;22.90;99.90;;;;;;5052745;28;20226;-66
2022/06/26 04:23:23;;;;;;;5.37;2.27;;;22.30;99.90;;;;;;5051518;28;20180;-68
2022/06/26 04:25:51;;;;;;;2.07;1.60;;;22.60;99.90;;;;;;5054629;28;20180;-66
2022/06/26 04:28:18;;;;;;;3.67;1.80;;;22.10;99.90;;;;;;5072805;28;20613;-66
2022/06/26 04:30:46;;;;;;;4.60;2.33;;;21.90;99.90;;;;;;5072670;28;20656;-66
2022/06/26 04:33:14;;;;;;;3.30;1.97;;;21.30;99.90;;;;;;5072674;28;20176;-67
2022/06/26 04:35:41;;;;;;;3.10;1.50;;;21.20;99.90;;;;;;5072646;28;20251;-65
2022/06/26 04:38:09;;;;;;;2.70;1.63;;;21.00;99.90;;;;;;5072679;28;20441;-65
2022/06/26 04:40:40;;;;;;;4.43;2.00;;;20.60;99.90;;;;;;5072241;28;20582;-67
2022/06/26 04:43:08;;;;;;;5.00;2.20;;;20.40;99.90;;;;;;5054475;28;20601;-66
2022/06/26 04:45:36;;;;;;;2.27;1.67;;;19.90;99.90;;;;;;5072494;28;20224;-65
2022/06/26 04:48:04;;;;;;;2.87;1.70;;;19.90;99.90;;;;;;5072464;28;20185;-67
2022/06/26 04:50:32;;;;;;;2.77;1.77;;;20.00;99.90;;;;;;5072518;28;20190;-66
2022/06/26 04:52:59;;;;;;;3.90;2.37;;;19.90;99.90;;;;;;5074635;28;20242;-66
2022/06/26 04:55:27;;;;;;;4.13;2.20;;;19.70;99.90;;;;;;5076056;28;20203;-67
2022/06/26 04:57:55;;;;;;;6.20;2.87;;;19.60;99.90;;;;;;5076115;28;20211;-67
2022/06/26 05:00:22;;;;;;;6.33;2.40;;;19.70;99.90;;;;;;5075848;28;20174;-66
2022/06/26 05:02:50;;;;;;;6.33;2.80;;;19.90;99.90;;;;;;5076121;28;20188;-67
2022/06/26 05:05:18;;;;;;;8.30;3.10;;;19.50;99.90;;;;;;5076043;28;20214;-68
2022/06/26 05:07:45;;;;;;;7.30;3.30;;;19.40;99.90;;;;;;5076105;28;20635;-66
2022/06/26 05:10:13;;;;;;;6.77;3.03;;;19.30;99.90;;;;;;5057826;28;20184;-67
2022/06/26 05:12:41;;;;;;;4.23;3.30;;;19.10;99.90;;;;;;5075874;28;20172;-66
2022/06/26 05:15:10;;;;;;;8.57;3.20;;;19.00;99.90;;;;;;5075888;28;20263;-66
2022/06/26 05:17:37;;;;;;;5.27;2.97;;;18.90;99.90;;;;;;5058265;28;20616;-65
2022/06/26 05:20:05;;;;;;;10.27;3.10;;;19.00;99.90;;;;;;5075584;28;20184;-67
2022/06/26 05:22:33;;;;;;;6.13;3.37;;;19.00;99.90;;;;;;5075617;28;20255;-65
2022/06/26 05:25:01;;;;;;;5.07;3.17;;;19.00;99.90;;;;;;5075456;28;20235;-65
2022/06/26 05:27:29;;;;;;;7.17;3.00;;;18.80;99.90;;;;;;5075257;28;20712;-66
2022/06/26 05:29:57;;;;;;;5.03;3.63;;;18.60;99.90;;;;;;5057586;28;20190;-66
2022/06/26 05:32:25;;;;;;;6.60;3.53;;;18.50;99.90;;;;;;5075623;28;20168;-65
2022/06/26 05:34:52;;;;;;;9.30;3.30;;;18.40;99.90;;;;;;5075607;28;20252;-66
2022/06/26 05:37:20;;;;;;;10.53;3.30;;;18.20;99.90;;;;;;5075318;28;20543;-66
2022/06/26 05:39:48;;;;;;;6.10;2.63;;;18.10;99.90;;;;;;5075442;28;20203;-65
2022/06/26 05:42:15;;;;;;;5.53;2.50;;;18.10;99.90;;;;;;5075389;28;20172;-66
2022/06/26 05:44:43;;;;;;;2.97;2.17;;;18.00;99.90;;;;;;5057668;28;20212;-66
2022/06/26 05:47:11;;;;;;;6.23;2.60;;;18.00;99.90;;;;;;5076019;28;20169;-66
2022/06/26 05:49:39;;;;;;;8.53;2.90;;;17.90;99.90;;;;;;5075277;28;20183;-66
2022/06/26 05:52:07;;;;;;;5.07;3.30;;;17.80;99.90;;;;;;5075187;28;20169;-66
2022/06/26 05:54:34;;;;;;;6.63;3.00;;;17.70;99.90;;;;;;5075228;28;20171;-66
2022/06/26 05:57:02;;;;;;;7.07;2.90;;;17.60;99.90;;;;;;5075089;28;20180;-66
2022/06/26 05:59:30;;;;;;;6.77;3.63;;;17.60;99.90;;;;;;5074995;28;20641;-67
2022/06/26 06:01:57;;;;;;;4.90;3.27;;;17.50;99.90;;;;;;5074871;28;20172;-67
2022/06/26 06:04:25;;;;;;;5.00;3.30;;;17.40;99.90;;;;;;5073985;28;20238;-66
2022/06/26 06:06:53;;;;;;;6.60;3.27;;;17.30;99.90;;;;;;5081829;28;20217;-66
2022/06/26 06:09:20;;;;;;;6.33;3.80;;;17.30;99.90;;;;;;5094446;28;20176;-67
2022/06/26 06:11:48;;;;;;;5.77;3.00;;;17.20;99.90;;;;;;5094545;28;20562;-67
2022/06/26 06:14:16;;;;;;;5.50;3.00;;;17.10;99.90;;;;;;5094970;28;20175;-66
2022/06/26 06:16:43;;;;;;;4.83;3.00;;;17.00;99.90;;;;;;5094739;28;20181;-67
2022/06/26 06:19:11;;;;;;;6.80;3.13;;;16.80;99.90;;;;;;5094685;28;20210;-66
2022/06/26 06:21:39;;;;;;;6.50;3.17;;;16.60;99.90;;;;;;5094868;28;20258;-67
2022/06/26 06:24:07;;;;;;;6.03;2.80;;;16.50;99.90;;;;;;5094197;28;20744;-67
2022/06/26 06:26:35;;;;;;;8.00;3.10;;;16.30;99.90;;;;;;5094204;28;20242;-67
2022/06/26 06:29:03;;;;;;;4.27;3.10;;;16.10;99.90;;;;;;5093960;28;20183;-66
2022/06/26 06:31:30;;;;;;;4.40;2.73;;;16.00;99.90;;;;;;5094604;28;20168;-66
2022/06/26 06:33:58;;;;;;;7.57;3.10;;;15.80;99.90;;;;;;5094619;28;20175;-66
2022/06/26 06:36:25;;;;;;;4.87;2.80;;;15.70;99.90;;;;;;5094195;28;20560;-66
2022/06/26 06:38:52;;;;;;;7.50;3.17;;;15.50;99.90;;;;;;5093966;28;20183;-65
2022/06/26 06:41:19;;;;;;;6.03;2.97;;;15.40;99.90;;;;;;5094447;28;20258;-65
2022/06/26 06:43:47;;;;;;;6.33;3.67;;;15.20;99.90;;;;;;5091759;28;20198;-64
2022/06/26 06:46:14;;;;;;;8.67;4.40;;;15.00;99.90;;;;;;5084615;28;20258;-65
2022/06/26 06:48:41;;;;;;;6.30;3.50;;;14.90;99.90;;;;;;5082969;28;20168;-65
2022/06/26 06:51:09;;;;;;;8.00;4.10;;;14.80;99.90;;;;;;5083208;28;20341;-65
2022/06/26 06:53:36;;;;;;;8.07;4.00;;;14.60;99.90;;;;;;5084494;28;20194;-65
2022/06/26 06:56:03;;;;;;;7.53;4.27;;;14.50;99.90;;;;;;5083197;28;20187;-65
2022/06/26 06:58:31;;;;;;;10.23;4.27;;;14.50;99.90;;;;;;5082829;28;20168;-65
2022/06/26 07:00:58;;;;;;;12.63;5.87;;;14.40;99.90;;;;;;5085182;28;20168;-65
2022/06/26 07:03:25;;;;;;;10.07;5.10;;;14.40;99.90;;;;;;5083415;28;20185;-65
2022/06/26 07:05:53;;;;;;;8.43;5.37;;;14.20;99.90;;;;;;5084388;28;20182;-65
2022/06/26 07:08:20;;;;;;;13.17;6.37;;;14.10;99.90;;;;;;5078829;28;20550;-65
2022/06/26 07:10:47;;;;;;;9.03;5.97;;;14.00;99.90;;;;;;5073748;28;20578;-65
2022/06/26 07:13:14;;;;;;;14.33;5.60;;;13.90;99.90;;;;;;5080212;28;20183;-66
2022/06/26 07:15:42;;;;;;;7.93;4.83;;;13.80;99.90;;;;;;5093928;28;20652;-66
2022/06/26 07:18:09;;;;;;;12.83;6.83;;;13.70;99.90;;;;;;5093805;28;20184;-66
2022/06/26 07:20:37;;;;;;;11.47;6.67;;;13.60;99.90;;;;;;5093717;28;20266;-65
2022/06/26 07:23:04;;;;;;;12.23;6.63;;;13.50;99.90;;;;;;5093650;28;20190;-65
2022/06/26 07:25:31;;;;;;;16.20;7.67;;;13.40;99.90;;;;;;5093728;28;20214;-65
2022/06/26 07:27:59;;;;;;;9.20;6.23;;;13.40;99.90;;;;;;5093493;28;20231;-66
2022/06/26 07:30:26;;;;;;;13.90;6.73;;;13.40;99.90;;;;;;5093712;28;20197;-66
2022/06/26 07:32:53;;;;;;;14.70;7.00;;;13.30;99.90;;;;;;5093765;28;20178;-65
2022/06/26 07:35:21;;;;;;;10.77;6.93;;;13.30;99.90;;;;;;5093724;28;20171;-65
2022/06/26 07:37:48;;;;;;;10.00;6.20;;;13.30;99.90;;;;;;5093142;28;20164;-63
2022/06/26 07:40:16;;;;;;;13.23;7.03;;;13.30;99.90;;;;;;5093533;28;20538;-66
2022/06/26 07:42:43;;;;;;;12.37;7.77;;;13.30;99.90;;;;;;5093576;28;20261;-66
2022/06/26 07:45:10;;;;;;;11.67;6.93;;;13.30;99.90;;;;;;5093297;28;20232;-66
2022/06/26 07:47:38;;;;;;;14.67;7.47;;;13.30;99.90;;;;;;5093376;28;20167;-66
2022/06/26 07:50:06;;;;;;;13.73;8.00;;;13.30;99.90;;;;;;5092559;28;20593;-65
2022/06/26 07:52:33;;;;;;;12.23;8.13;;;13.30;99.90;;;;;;5093079;28;20225;-65
2022/06/26 07:55:01;;;;;;;18.20;8.27;;;13.30;99.90;;;;;;5093315;28;20187;-66
2022/06/26 07:57:28;;;;;;;20.20;9.10;;;13.20;99.90;;;;;;5093287;28;20256;-65
2022/06/26 07:59:55;;;;;;;16.87;9.00;;;13.20;99.90;;;;;;5092745;28;20212;-65
2022/06/26 08:02:23;;;;;;;27.43;8.63;;;13.20;99.90;;;;;;5092768;28;20218;-65
2022/06/26 08:04:50;;;;;;;30.87;8.97;;;13.20;99.90;;;;;;5092933;28;20214;-67
2022/06/26 08:07:17;;;;;;;23.80;9.17;;;13.10;99.90;;;;;;5092995;28;20651;-65
2022/06/26 08:09:44;;;;;;;28.17;9.47;;;13.10;99.90;;;;;;5093126;28;20207;-66
2022/06/26 08:12:12;;;;;;;17.73;8.77;;;13.10;99.90;;;;;;5093095;28;20257;-66
2022/06/26 08:14:39;;;;;;;26.90;8.47;;;13.10;99.90;;;;;;5093469;28;20191;-66
2022/06/26 08:17:06;;;;;;;25.63;8.90;;;13.00;99.90;;;;;;5093192;28;20178;-66
2022/06/26 08:19:34;;;;;;;16.27;8.37;;;13.00;99.90;;;;;;5093094;28;20594;-66
2022/06/26 08:22:01;;;;;;;17.63;9.30;;;13.00;99.90;;;;;;5093233;28;20174;-65
2022/06/26 08:24:33;;;;;;;16.00;8.60;;;13.00;99.90;;;;;;5092940;28;20326;-65
2022/06/26 08:27:01;;;;;;;22.50;9.57;;;12.90;99.90;;;;;;5093638;28;20217;-65
2022/06/26 08:29:29;;;;;;;24.60;10.53;;;12.80;99.90;;;;;;5096985;28;20177;-63
2022/06/26 08:31:56;;;;;;;18.43;10.07;;;12.80;99.90;;;;;;5097182;28;20180;-64
2022/06/26 08:34:24;;;;;;;15.07;9.57;;;12.80;99.90;;;;;;5097095;28;20181;-64
2022/06/26 08:36:52;;;;;;;15.97;9.30;;;12.80;99.90;;;;;;5096788;28;20679;-66
2022/06/26 08:39:20;;;;;;;15.03;9.30;;;12.80;99.90;;;;;;5096997;28;20186;-66
2022/06/26 08:41:48;;;;;;;13.40;8.40;;;12.90;99.90;;;;;;5096792;28;20183;-66
2022/06/26 08:44:16;;;;;;;12.53;8.10;;;12.80;99.90;;;;;;5096625;28;20220;-65
2022/06/26 08:46:45;;;;;;;13.20;7.80;;;12.90;99.90;;;;;;5096218;28;20545;-64
2022/06/26 08:49:19;;;;;;;11.43;8.43;;;13.00;99.90;;;;;;5078671;28;20178;-65
2022/06/26 08:51:48;;;;;;;13.87;8.60;;;13.00;99.90;;;;;;5093101;28;20637;-65
2022/06/26 08:54:17;;;;;;;11.33;7.50;;;13.00;99.90;;;;;;5096512;28;20574;-65
2022/06/26 08:56:49;;;;;;;13.50;8.47;;;12.90;99.90;;;;;;5094143;28;20205;-65
2022/06/26 08:59:19;;;;;;;25.73;17.30;;;12.90;99.90;;;;;;5076147;28;20175;-65
2022/06/26 09:01:46;;;;;;;17.53;10.03;;;12.80;99.90;;;;;;5076276;28;20186;-65
2022/06/26 09:04:14;;;;;;;13.87;7.63;;;12.70;99.90;;;;;;5081925;28;20194;-65
2022/06/26 09:06:43;;;;;;;15.33;9.70;;;12.60;99.90;;;;;;5096477;28;20564;-66
2022/06/26 09:09:22;;;;;;;20.43;12.47;;;12.50;99.90;;;;;;5096330;28;20708;-65
2022/06/26 09:11:51;;;;;;;16.73;10.07;;;12.40;99.90;;;;;;5096524;28;20173;-66
2022/06/26 09:14:19;;;;;;;21.27;10.30;;;12.40;99.90;;;;;;5095627;28;20239;-66
2022/06/26 09:16:48;;;;;;;13.07;9.33;;;12.30;99.90;;;;;;5095390;28;20173;-66
2022/06/26 09:19:18;;;;;;;13.47;7.97;;;12.20;99.90;;;;;;5096156;28;20181;-66
2022/06/26 09:21:47;;;;;;;17.53;7.77;;;12.20;99.90;;;;;;5095785;28;20237;-65
2022/06/26 09:24:17;;;;;;;23.47;7.60;;;12.20;99.90;;;;;;5095921;28;20223;-67
2022/06/26 09:26:45;;;;;;;23.03;7.07;;;12.20;99.90;;;;;;5095874;28;20304;-67
2022/06/26 09:29:14;;;;;;;13.37;7.03;;;12.20;99.90;;;;;;5095902;28;20544;-68
2022/06/26 09:31:43;;;;;;;11.17;6.20;;;12.20;99.90;;;;;;5095826;28;20291;-67
2022/06/26 09:34:23;;;;;;;8.70;6.37;;;12.20;99.90;;;;;;5095722;28;20266;-67
2022/06/26 09:37:04;;;;;;;8.10;6.03;;;12.20;99.90;;;;;;5095669;28;20175;-67
2022/06/26 09:39:33;;;;;;;9.53;6.80;;;12.10;99.90;;;;;;5091254;28;20176;-67
2022/06/26 09:42:21;;;;;;;10.10;6.27;;;12.00;99.90;;;;;;5088421;28;20266;-66
2022/06/26 09:44:51;;;;;;;12.20;6.60;;;12.00;99.90;;;;;;5089332;28;20212;-67
2022/06/26 09:47:30;;;;;;;8.73;6.33;;;11.90;99.90;;;;;;5086397;28;20651;-67
2022/06/26 09:49:59;;;;;;;14.03;6.90;;;11.90;99.90;;;;;;5088190;28;20177;-67
2022/06/26 09:52:30;;;;;;;12.00;6.43;;;11.80;99.90;;;;;;5095226;28;20178;-67
2022/06/26 09:54:59;;;;;;;14.23;6.87;;;11.80;99.90;;;;;;5110956;28;20189;-66
2022/06/26 09:57:28;;;;;;;11.60;6.87;;;11.80;99.90;;;;;;5111369;28;20189;-66
2022/06/26 09:59:56;;;;;;;10.63;7.57;;;11.80;99.90;;;;;;5105078;28;20272;-66
2022/06/26 10:08:04;;;;;;;11.03;7.10;;;11.70;99.90;;;;;;5089989;28;20261;-66
2022/06/26 10:10:35;;;;;;;14.00;8.30;;;11.80;99.90;;;;;;5084683;28;20186;-65
2022/06/26 10:13:09;;;;;;;11.60;8.03;;;11.70;99.90;;;;;;5088680;28;20181;-66
2022/06/26 10:16:14;;;;;;;13.17;8.23;;;11.70;99.90;;;;;;5087337;28;20177;-66
2022/06/26 10:19:06;;;;;;;17.93;9.97;;;11.60;99.90;;;;;;5055529;28;20322;-66
2022/06/26 10:21:40;;;;;;;11.70;8.37;;;11.50;99.90;;;;;;5093060;28;20559;-66
2022/06/26 10:24:08;;;;;;;11.17;7.63;;;11.40;99.90;;;;;;5088037;28;20297;-66
2022/06/26 10:26:35;;;;;;;12.60;7.70;;;11.50;99.90;;;;;;5087896;28;20224;-67
2022/06/26 10:29:06;;;;;;;15.20;8.20;;;11.50;99.90;;;;;;5093169;28;20192;-67
2022/06/26 10:31:49;;;;;;;11.90;8.20;;;11.40;99.90;;;;;;5094002;28;20191;-67
2022/06/26 10:34:26;;;;;;;10.10;7.57;;;11.40;99.90;;;;;;5086989;28;20206;-67
2022/06/26 10:37:18;;;;;;;12.87;7.13;;;11.40;99.90;;;;;;5086379;28;20181;-67
2022/06/26 10:39:51;;;;;;;11.43;7.80;;;11.30;99.90;;;;;;5080426;28;20189;-67
2022/06/26 10:45:09;;;;;;;8.43;6.33;;;11.40;99.90;;;;;;5083558;28;20238;-67
2022/06/26 10:47:49;;;;;;;14.73;7.40;;;11.30;99.90;;;;;;5094324;28;20267;-68
2022/06/26 10:50:36;;;;;;;9.30;7.00;;;11.30;99.90;;;;;;5089975;28;20184;-67
2022/06/26 10:53:17;;;;;;;10.97;6.70;;;11.30;99.90;;;;;;5086151;28;20171;-67
2022/06/26 10:55:52;;;;;;;9.43;6.80;;;11.30;99.90;;;;;;5093604;28;20199;-67
2022/06/26 10:58:28;;;;;;;10.53;7.07;;;11.30;99.90;;;;;;5093515;28;20662;-67
2022/06/26 11:00:59;;;;;;;11.03;7.27;;;11.20;99.90;;;;;;5093694;28;20641;-67
2022/06/26 11:03:27;;;;;;;24.37;15.60;;;11.20;99.90;;;;;;5095920;28;20664;-69
2022/06/26 11:06:07;;;;;;;23.73;16.23;;;11.20;99.90;;;;;;5094909;28;20186;-67
2022/06/26 11:08:46;;;;;;;20.97;12.83;;;11.20;99.90;;;;;;5094022;28;20263;-67
2022/06/26 11:11:22;;;;;;;12.90;8.57;;;11.20;99.90;;;;;;5094186;28;20179;-67
2022/06/26 11:13:56;;;;;;;12.73;8.97;;;11.10;99.90;;;;;;5092929;28;20770;-67
2022/06/26 11:16:34;;;;;;;15.93;10.03;;;11.00;99.90;;;;;;5090972;28;20657;-65
2022/06/26 11:19:05;;;;;;;15.17;10.33;;;10.90;99.90;;;;;;5093096;28;20658;-66
2022/06/26 11:21:32;;;;;;;19.60;12.07;;;10.90;99.90;;;;;;5093610;28;20183;-66
2022/06/26 11:24:01;;;;;;;17.00;11.80;;;10.80;99.90;;;;;;5093179;28;20226;-65
2022/06/26 11:26:29;;;;;;;17.70;12.70;;;10.70;99.90;;;;;;5088826;28;20707;-64
2022/06/26 11:29:04;;;;;;;20.83;12.80;;;10.70;99.90;;;;;;5086414;28;20203;-65
2022/06/26 11:31:33;;;;;;;22.53;15.63;;;10.60;99.90;;;;;;5082110;28;20175;-65
2022/06/26 11:34:15;;;;;;;27.20;16.07;;;10.60;99.90;;;;;;5085174;28;20218;-66
2022/06/26 11:36:54;;;;;;;52.10;15.67;;;10.60;99.90;;;;;;5085211;28;20184;-66
2022/06/26 11:39:23;;;;;;;20.30;14.37;;;10.60;99.90;;;;;;5084763;28;20180;-66
2022/06/26 11:41:51;;;;;;;22.87;16.47;;;10.60;99.90;;;;;;5086276;28;20187;-67
2022/06/26 11:44:19;;;;;;;20.60;15.03;;;10.60;99.90;;;;;;5086558;28;20662;-67
2022/06/26 11:46:46;;;;;;;18.83;14.10;;;10.50;99.90;;;;;;5085535;28;20189;-66
2022/06/26 11:49:14;;;;;;;19.10;12.77;;;10.50;99.90;;;;;;5088764;28;20175;-66
2022/06/26 11:51:41;;;;;;;18.00;12.47;;;10.50;99.90;;;;;;5090112;28;20177;-67
2022/06/26 11:54:08;;;;;;;19.97;13.23;;;10.50;99.90;;;;;;5093011;28;20182;-67
2022/06/26 11:56:36;;;;;;;16.13;10.77;;;10.40;99.90;;;;;;5092713;28;20203;-66
2022/06/26 11:59:04;;;;;;;16.00;11.27;;;10.40;99.90;;;;;;5092699;28;20182;-65
2022/06/26 12:01:34;;;;;;;15.30;11.30;;;10.40;99.90;;;;;;5091954;28;20232;-65
2022/06/26 12:04:03;;;;;;;15.20;10.67;;;10.40;99.90;;;;;;5078136;28;20278;-66
2022/06/26 12:06:41;;;;;;;16.90;11.63;;;10.40;99.90;;;;;;5093473;28;20175;-66
2022/06/26 12:09:20;;;;;;;24.13;14.57;;;10.30;99.90;;;;;;5092122;28;20192;-65
2022/06/26 12:11:50;;;;;;;19.83;12.87;;;10.30;99.90;;;;;;5092970;28;20277;-66
2022/06/26 12:14:20;;;;;;;19.80;12.77;;;10.30;99.90;;;;;;5093058;28;20195;-67
2022/06/26 12:16:49;;;;;;;14.40;10.60;;;10.20;99.90;;;;;;5092903;28;20654;-64
2022/06/26 12:19:18;;;;;;;17.63;11.13;;;10.20;99.90;;;;;;5092409;28;20210;-67
2022/06/26 12:21:47;;;;;;;16.97;11.47;;;10.20;99.90;;;;;;5092933;28;20178;-67
2022/06/26 12:24:17;;;;;;;14.07;10.30;;;10.20;99.90;;;;;;5092752;28;20210;-67
2022/06/26 12:26:46;;;;;;;16.90;10.53;;;10.10;99.90;;;;;;5074967;28;20223;-67
2022/06/26 12:29:18;;;;;;;15.10;11.57;;;10.10;99.90;;;;;;5092105;28;20270;-67
2022/06/26 12:31:47;;;;;;;17.47;10.53;;;10.20;99.90;;;;;;5092510;28;20719;-64
2022/06/26 12:34:15;;;;;;;12.13;9.20;;;10.20;99.90;;;;;;5092854;28;20638;-66
2022/06/26 12:36:43;;;;;;;15.70;9.93;;;10.20;99.90;;;;;;5092501;28;20215;-65
2022/06/26 12:39:11;;;;;;;17.40;9.47;;;10.10;99.90;;;;;;5074389;28;20191;-65
2022/06/26 12:41:40;;;;;;;13.13;8.37;;;10.00;99.90;;;;;;5092588;28;20262;-66
2022/06/26 12:44:08;;;;;;;9.17;8.03;;;10.00;99.90;;;;;;5073203;28;20211;-65
2022/06/26 12:46:35;;;;;;;13.10;8.03;;;10.00;99.90;;;;;;5089214;28;20215;-65
2022/06/26 12:49:03;;;;;;;13.40;8.73;;;10.00;99.90;;;;;;5091465;28;20183;-66
2022/06/26 12:51:32;;;;;;;12.30;8.37;;;10.00;99.90;;;;;;5087892;28;20603;-65
2022/06/26 12:54:00;;;;;;;9.43;7.90;;;9.90;99.90;;;;;;5085679;28;20197;-66
2022/06/26 12:56:28;;;;;;;10.50;7.87;;;9.90;99.90;;;;;;5069795;28;20550;-65
2022/06/26 12:58:56;;;;;;;12.30;8.97;;;9.90;99.90;;;;;;5084971;28;20186;-65
2022/06/26 13:01:24;;;;;;;12.87;7.70;;;9.90;99.90;;;;;;5086227;28;20180;-65
2022/06/26 13:03:51;;;;;;;14.07;7.90;;;9.90;99.90;;;;;;5070461;28;20246;-66